createdAt,value
2022-10-23T00:00:15.328Z,101664.88
2022-10-23T00:02:42.258Z,101664.03
2022-10-23T00:05:09.235Z,101651.78
2022-10-23T00:07:35.872Z,101648.19
2022-10-23T00:10:02.450Z,101646.53
2022-10-23T00:12:29.029Z,101650.84
2022-10-23T00:14:55.440Z,101643.88
2022-10-23T00:17:21.826Z,101653.56
2022-10-23T00:19:48.317Z,101660.59
2022-10-23T00:22:14.748Z,101654.44
2022-10-23T00:24:41.184Z,101654.50
2022-10-23T00:27:07.931Z,101649.28
2022-10-23T00:29:34.427Z,101655.63
2022-10-23T00:32:00.935Z,101661.09
2022-10-23T00:34:27.371Z,101658.63
2022-10-23T00:36:53.786Z,101653.41
2022-10-23T00:39:20.228Z,101652.47
2022-10-23T00:41:46.653Z,101656.91
2022-10-23T00:44:19.034Z,101648.78
2022-10-23T00:46:46.222Z,101648.78
2022-10-23T00:49:13.472Z,101645.19
2022-10-23T00:51:48.842Z,101643.38
2022-10-23T00:54:25.561Z,101643.72
2022-10-23T00:56:59.293Z,101651.69
2022-10-23T00:59:26.350Z,101652.56
2022-10-23T01:01:53.776Z,101641.00
2022-10-23T01:04:21.566Z,101640.91
2022-10-23T01:07:03.520Z,101634.81
2022-10-23T01:09:41.895Z,101631.31
2022-10-23T01:12:20.703Z,101632.25
2022-10-23T01:14:47.130Z,101642.13
2022-10-23T01:17:26.059Z,101636.81
2022-10-23T01:20:12.810Z,101630.63
2022-10-23T01:23:14.768Z,101623.53
2022-10-23T01:26:02.410Z,101616.41
2022-10-23T01:28:50.403Z,101610.25
2022-10-23T01:31:25.716Z,101615.28
2022-10-23T01:33:58.884Z,101618.91
2022-10-23T01:36:29.028Z,101621.38
2022-10-23T01:39:25.540Z,101615.69
2022-10-23T01:41:57.854Z,101623.56
2022-10-23T01:44:36.986Z,101618.03
2022-10-23T01:47:07.329Z,101613.56
2022-10-23T01:49:36.023Z,101598.56
2022-10-23T01:52:08.499Z,101593.84
2022-10-23T01:54:39.434Z,101596.69
2022-10-23T01:57:10.725Z,101588.72
2022-10-23T01:59:43.947Z,101598.56
2022-10-23T02:02:13.240Z,101594.97
2022-10-23T02:04:46.360Z,101585.22
2022-10-23T02:07:12.848Z,101579.47
2022-10-23T02:09:39.854Z,101577.66
2022-10-23T02:12:18.354Z,101574.25
2022-10-23T02:14:58.342Z,101577.84
2022-10-23T02:17:41.275Z,101576.81
2022-10-23T02:20:26.889Z,101575.00
2022-10-23T02:23:02.034Z,101557.94
2022-10-23T02:25:35.298Z,101550.72
2022-10-23T02:28:07.255Z,101550.91
2022-10-23T02:30:37.758Z,101539.44
2022-10-23T02:33:06.712Z,101540.28
2022-10-23T02:35:33.269Z,101538.59
2022-10-23T02:38:00.928Z,101537.53
2022-10-23T02:40:42.037Z,101534.88
2022-10-23T02:43:16.908Z,101534.78
2022-10-23T02:45:54.380Z,101534.78
2022-10-23T02:48:26.949Z,101548.16
2022-10-23T02:51:07.571Z,101545.50
2022-10-23T02:57:01.705Z,101530.63
2022-10-23T02:59:36.866Z,101531.47
2022-10-23T03:02:17.025Z,101530.91
2022-10-23T03:04:45.086Z,101524.88
2022-10-23T03:07:13.464Z,101526.59
2022-10-23T03:09:39.931Z,101513.41
2022-10-23T03:12:07.992Z,101511.69
2022-10-23T03:14:34.437Z,101517.88
2022-10-23T03:17:00.906Z,101514.44
2022-10-23T03:19:27.313Z,101512.66
2022-10-23T03:21:53.852Z,101506.28
2022-10-23T03:24:20.296Z,101499.28
2022-10-23T03:26:46.899Z,101496.81
2022-10-23T03:29:13.414Z,101504.84
2022-10-23T03:31:39.979Z,101501.41
2022-10-23T03:34:10.992Z,101502.28
2022-10-23T03:36:38.160Z,101496.38
2022-10-23T03:39:04.701Z,101489.38
2022-10-23T03:41:31.379Z,101488.44
2022-10-23T03:43:58.089Z,101484.06
2022-10-23T03:46:24.649Z,101475.34
2022-10-23T03:48:51.241Z,101482.44
2022-10-23T03:51:17.705Z,101487.00
2022-10-23T03:53:44.147Z,101479.13
2022-10-23T03:56:10.576Z,101477.41
2022-10-23T03:58:37.022Z,101475.63
2022-10-23T04:01:03.684Z,101476.38
2022-10-23T04:03:30.196Z,101475.53
2022-10-23T04:05:56.624Z,101462.16
2022-10-23T04:08:23.063Z,101463.00
2022-10-23T04:10:49.637Z,101463.09
2022-10-23T04:13:16.060Z,101456.09
2022-10-23T04:15:48.580Z,101448.97
2022-10-23T04:18:15.450Z,101440.16
2022-10-23T04:20:41.959Z,101434.38
2022-10-23T04:23:08.427Z,101426.59
2022-10-23T04:25:35.014Z,101426.31
2022-10-23T04:28:01.520Z,101429.06
2022-10-23T04:30:27.967Z,101427.25
2022-10-23T04:32:54.524Z,101425.34
2022-10-23T04:35:20.957Z,101423.56
2022-10-23T04:37:47.405Z,101408.56
2022-10-23T04:40:13.994Z,101413.78
2022-10-23T04:42:40.671Z,101409.44
2022-10-23T04:45:07.746Z,101412.19
2022-10-23T04:47:34.319Z,101407.53
2022-10-23T04:50:00.785Z,101396.25
2022-10-23T04:52:27.302Z,101391.78
2022-10-23T04:54:53.843Z,101394.44
2022-10-23T04:57:20.287Z,101394.25
2022-10-23T04:59:46.801Z,101389.88
2022-10-23T05:02:13.254Z,101388.94
2022-10-23T05:04:39.712Z,101384.47
2022-10-23T05:07:06.184Z,101387.13
2022-10-23T05:09:32.662Z,101389.72
2022-10-23T05:11:59.100Z,101394.00
2022-10-23T05:14:25.591Z,101387.75
2022-10-23T05:16:59.314Z,101386.88
2022-10-23T05:19:30.517Z,101382.16
2022-10-23T05:21:57.670Z,101381.13
2022-10-23T05:24:25.233Z,101384.53
2022-10-23T05:26:52.941Z,101382.53
2022-10-23T05:29:20.174Z,101390.59
2022-10-23T05:31:49.449Z,101382.63
2022-10-23T05:34:18.181Z,101387.84
2022-10-23T05:36:45.529Z,101381.69
2022-10-23T05:39:11.954Z,101369.25
2022-10-23T05:41:38.412Z,101375.31
2022-10-23T05:44:04.891Z,101372.66
2022-10-23T05:46:31.339Z,101372.28
2022-10-23T05:51:29.251Z,101366.19
2022-10-23T05:53:56.823Z,101365.44
2022-10-23T05:56:23.418Z,101369.72
2022-10-23T05:58:50.009Z,101359.84
2022-10-23T06:01:18.396Z,101367.91
2022-10-23T06:03:45.092Z,101365.25
2022-10-23T06:06:11.657Z,101375.78
2022-10-23T06:08:38.129Z,101362.50
2022-10-23T06:11:14.041Z,101365.16
2022-10-23T06:13:43.308Z,101365.06
2022-10-23T06:16:10.080Z,101374.44
2022-10-23T06:18:36.912Z,101360.28
2022-10-23T06:21:03.779Z,101355.84
2022-10-23T06:23:32.415Z,101357.53
2022-10-23T06:25:59.331Z,101355.34
2022-10-23T06:28:26.344Z,101354.38
2022-10-23T06:30:52.913Z,101341.94
2022-10-23T06:33:19.866Z,101344.72
2022-10-23T06:35:46.515Z,101330.28
2022-10-23T06:38:13.040Z,101332.81
2022-10-23T06:40:39.514Z,101341.44
2022-10-23T06:43:06.467Z,101347.22
2022-10-23T06:45:34.018Z,101336.59
2022-10-23T06:48:01.264Z,101336.28
2022-10-23T06:50:30.912Z,101332.56
2022-10-23T06:52:57.374Z,101337.97
2022-10-23T06:55:23.774Z,101316.63
2022-10-23T06:57:50.264Z,101312.84
2022-10-23T07:00:16.892Z,101311.66
2022-10-23T07:02:43.787Z,101319.53
2022-10-23T07:05:13.477Z,101307.75
2022-10-23T07:07:40.525Z,101306.47
2022-10-23T07:10:07.528Z,101295.84
2022-10-23T07:12:34.056Z,101304.38
2022-10-23T07:15:00.493Z,101311.19
2022-10-23T07:17:28.830Z,101315.53
2022-10-23T07:19:55.414Z,101322.56
2022-10-23T07:22:22.087Z,101323.41
2022-10-23T07:24:48.578Z,101323.31
2022-10-23T07:27:15.039Z,101316.81
2022-10-23T07:29:42.120Z,101309.59
2022-10-23T07:32:09.158Z,101306.63
2022-10-23T07:34:36.872Z,101302.47
2022-10-23T07:37:03.380Z,101298.63
2022-10-23T07:39:29.978Z,101299.28
2022-10-23T07:41:56.478Z,101301.50
2022-10-23T07:44:25.611Z,101301.13
2022-10-23T07:46:54.034Z,101299.00
2022-10-23T07:49:20.538Z,101301.22
2022-10-23T07:51:50.503Z,101286.75
2022-10-23T07:54:18.282Z,101299.84
2022-10-23T07:56:44.708Z,101290.81
2022-10-23T07:59:14.210Z,101283.44
2022-10-23T08:01:42.619Z,101274.06
2022-10-23T08:04:10.421Z,101275.66
2022-10-23T08:06:36.969Z,101264.91
2022-10-23T08:09:06.431Z,101261.28
2022-10-23T08:11:35.548Z,101270.19
2022-10-23T08:14:06.040Z,101276.38
2022-10-23T08:16:34.675Z,101277.63
2022-10-23T08:19:01.946Z,101279.88
2022-10-23T08:21:28.452Z,101272.84
2022-10-23T08:23:56.493Z,101266.94
2022-10-23T08:26:25.663Z,101256.06
2022-10-23T08:28:53.004Z,101255.34
2022-10-23T08:31:21.011Z,101255.72
2022-10-23T08:36:25.711Z,101240.25
2022-10-23T08:38:54.066Z,101240.53
2022-10-23T08:41:26.503Z,101246.81
2022-10-23T08:44:03.920Z,101231.47
2022-10-23T08:46:37.603Z,101236.31
2022-10-23T08:49:28.487Z,101238.03
2022-10-23T08:51:57.671Z,101229.81
2022-10-23T08:54:42.201Z,101233.09
2022-10-23T08:57:16.438Z,101230.31
2022-10-23T08:59:48.956Z,101220.25
2022-10-23T09:02:24.280Z,101218.31
2022-10-23T09:04:53.550Z,101206.59
2022-10-23T09:07:38.026Z,101200.41
2022-10-23T09:10:34.073Z,101195.78
2022-10-23T09:13:21.654Z,101188.66
2022-10-23T09:16:03.644Z,101194.59
2022-10-23T09:18:31.396Z,101186.03
2022-10-23T09:20:58.266Z,101179.84
2022-10-23T09:23:25.098Z,101178.78
2022-10-23T09:25:56.891Z,101183.13
2022-10-23T09:28:27.524Z,101172.97
2022-10-23T09:30:54.030Z,101169.84
2022-10-23T09:33:26.252Z,101166.94
2022-10-23T09:36:00.124Z,101168.28
2022-10-23T09:38:31.137Z,101167.19
2022-10-23T09:41:07.701Z,101157.38
2022-10-23T09:43:34.363Z,101160.03
2022-10-23T09:46:04.998Z,101158.47
2022-10-23T09:48:32.258Z,101158.69
2022-10-23T09:51:18.671Z,101147.19
2022-10-23T09:53:51.831Z,101156.88
2022-10-23T09:56:31.986Z,101147.66
2022-10-23T09:59:19.436Z,101141.97
2022-10-23T10:01:54.688Z,101147.06
2022-10-23T10:04:39.839Z,101156.03
2022-10-23T10:07:18.889Z,101155.91
2022-10-23T10:09:45.417Z,101141.72
2022-10-23T10:12:43.322Z,101133.72
2022-10-23T10:15:36.319Z,101133.59
2022-10-23T10:18:45.746Z,101119.53
2022-10-23T10:21:25.092Z,101104.25
2022-10-23T10:24:05.763Z,101095.00
2022-10-23T10:26:51.004Z,101112.72
2022-10-23T10:29:42.019Z,101116.25
2022-10-23T10:32:32.025Z,101118.91
2022-10-23T10:35:12.552Z,101110.91
2022-10-23T10:38:07.308Z,101105.31
2022-10-23T10:40:47.099Z,101110.53
2022-10-23T10:43:31.475Z,101098.75
2022-10-23T10:46:05.207Z,101083.00
2022-10-23T10:48:39.950Z,101079.34
2022-10-23T10:51:23.395Z,101069.53
2022-10-23T10:54:21.635Z,101059.44
2022-10-23T10:56:48.564Z,101062.75
2022-10-23T10:59:24.988Z,101063.72
2022-10-23T11:02:12.642Z,101063.59
2022-10-23T11:05:02.856Z,101045.38
2022-10-23T11:07:39.400Z,101040.63
2022-10-23T11:10:16.242Z,101037.00
2022-10-23T11:12:46.393Z,101033.09
2022-10-23T11:15:16.155Z,101021.31
2022-10-23T11:17:51.188Z,101008.56
2022-10-23T11:20:51.334Z,101004.19
2022-10-23T11:23:42.479Z,100999.19
2022-10-23T11:26:39.574Z,100992.47
2022-10-23T11:29:31.450Z,100987.72
2022-10-23T11:32:07.092Z,100978.53
2022-10-23T11:35:18.531Z,100970.97
2022-10-23T11:37:45.203Z,100956.50
2022-10-23T11:40:11.979Z,100957.84
2022-10-23T11:42:41.742Z,100958.47
2022-10-23T11:45:30.642Z,100941.19
2022-10-23T11:48:03.742Z,100950.09
2022-10-23T11:50:49.746Z,100941.81
2022-10-23T11:53:31.495Z,100937.50
2022-10-23T11:56:13.171Z,100934.84
2022-10-23T11:58:48.853Z,100933.72
2022-10-23T12:01:27.741Z,100936.72
2022-10-23T12:04:23.458Z,100919.41
2022-10-23T12:06:55.458Z,100897.34
2022-10-23T12:09:40.965Z,100894.38
2022-10-23T12:12:07.395Z,100891.44
2022-10-23T12:14:53.848Z,100883.03
2022-10-23T12:17:23.338Z,100883.19
2022-10-23T12:19:52.826Z,100880.38
2022-10-23T12:22:59.155Z,100877.28
2022-10-23T12:25:43.320Z,100872.06
2022-10-23T12:28:40.989Z,100876.56
2022-10-23T12:31:47.139Z,100869.81
2022-10-23T12:34:57.149Z,100868.97
2022-10-23T12:37:42.503Z,100858.13
2022-10-23T12:40:10.498Z,100850.38
2022-10-23T12:42:37.671Z,100851.22
2022-10-23T12:45:10.153Z,100836.59
2022-10-23T12:50:17.470Z,100833.22
2022-10-23T12:53:01.778Z,100821.38
2022-10-23T12:55:35.766Z,100830.81
2022-10-23T12:58:02.583Z,100819.41
2022-10-23T13:00:29.415Z,100814.19
2022-10-23T13:03:00.988Z,100820.09
2022-10-23T13:05:28.576Z,100820.09
2022-10-23T13:07:58.173Z,100812.53
2022-10-23T13:10:25.980Z,100806.31
2022-10-23T13:12:59.506Z,100811.81
2022-10-23T13:15:35.982Z,100801.97
2022-10-23T13:18:04.090Z,100800.81
2022-10-23T13:20:36.751Z,100798.72
2022-10-23T13:23:20.613Z,100795.88
2022-10-23T13:26:02.363Z,100790.81
2022-10-23T13:28:33.156Z,100777.97
2022-10-23T13:31:06.519Z,100769.66
2022-10-23T13:33:37.760Z,100764.44
2022-10-23T13:36:13.319Z,100762.75
2022-10-23T13:38:45.574Z,100754.88
2022-10-23T13:41:20.171Z,100741.88
2022-10-23T13:43:54.419Z,100742.19
2022-10-23T13:46:23.622Z,100727.41
2022-10-23T13:48:50.114Z,100718.50
2022-10-23T13:51:21.259Z,100717.94
2022-10-23T13:53:48.272Z,100720.56
2022-10-23T13:56:17.143Z,100709.47
2022-10-23T13:58:43.719Z,100700.44
2022-10-23T14:01:22.217Z,100693.66
2022-10-23T14:03:50.045Z,100690.28
2022-10-23T14:06:16.899Z,100692.66
2022-10-23T14:08:43.622Z,100690.81
2022-10-23T14:13:47.677Z,100687.16
2022-10-23T14:16:15.948Z,100683.19
2022-10-23T14:18:43.318Z,100678.97
2022-10-23T14:21:12.736Z,100684.88
2022-10-23T14:23:39.552Z,100675.69
2022-10-23T14:26:09.125Z,100670.47
2022-10-23T14:28:36.178Z,100679.91
2022-10-23T14:31:11.745Z,100671.31
2022-10-23T14:33:38.901Z,100669.78
2022-10-23T14:36:06.165Z,100672.78
2022-10-23T14:38:33.126Z,100669.09
2022-10-23T14:41:00.168Z,100675.75
2022-10-23T14:43:26.606Z,100684.63
2022-10-23T14:45:53.142Z,100680.94
2022-10-23T14:48:20.756Z,100670.25
2022-10-23T14:50:49.501Z,100673.22
2022-10-23T14:53:16.711Z,100677.03
2022-10-23T14:55:43.196Z,100665.94
2022-10-23T14:58:09.811Z,100655.06
2022-10-23T15:00:36.225Z,100651.41
2022-10-23T15:03:02.825Z,100662.94
2022-10-23T15:05:29.267Z,100651.84
2022-10-23T15:07:56.702Z,100648.16
2022-10-23T15:10:23.136Z,100642.97
2022-10-23T15:12:50.217Z,100637.91
2022-10-23T15:15:17.042Z,100632.25
2022-10-23T15:17:43.758Z,100636.06
2022-10-23T15:20:10.558Z,100624.09
2022-10-23T15:22:37.033Z,100619.88
2022-10-23T15:25:03.704Z,100617.06
2022-10-23T15:27:30.106Z,100621.03
2022-10-23T15:29:56.632Z,100605.09
2022-10-23T15:32:23.184Z,100615.81
2022-10-23T15:34:49.879Z,100603.56
2022-10-23T15:37:16.785Z,100602.31
2022-10-23T15:39:44.306Z,100606.00
2022-10-23T15:42:10.843Z,100609.97
2022-10-23T15:44:39.831Z,100598.13
2022-10-23T15:47:06.284Z,100602.09
2022-10-23T15:49:33.211Z,100588.00
2022-10-23T15:51:59.804Z,100591.28
2022-10-23T15:54:29.235Z,100583.94
2022-10-23T15:56:58.661Z,100578.19
2022-10-23T15:59:25.646Z,100583.00
2022-10-23T16:01:53.019Z,100582.59
2022-10-23T16:04:24.720Z,100574.41
2022-10-23T16:06:51.492Z,100579.91
2022-10-23T16:09:18.087Z,100568.22
2022-10-23T16:11:44.719Z,100560.50
2022-10-23T16:14:15.951Z,100561.78
2022-10-23T16:16:43.116Z,100553.75
2022-10-23T16:19:10.585Z,100562.47
2022-10-23T16:21:37.301Z,100559.09
2022-10-23T16:24:06.007Z,100572.63
2022-10-23T16:26:33.129Z,100563.91
2022-10-23T16:29:02.907Z,100562.34
2022-10-23T16:31:29.897Z,100566.88
2022-10-23T16:34:01.064Z,100557.72
2022-10-23T16:36:28.214Z,100558.97
2022-10-23T16:38:54.737Z,100555.03
2022-10-23T16:41:21.363Z,100553.75
2022-10-23T16:43:47.811Z,100551.91
2022-10-23T16:46:17.831Z,100544.47
2022-10-23T16:48:44.328Z,100538.16
2022-10-23T16:51:14.232Z,100536.16
2022-10-23T16:53:41.185Z,100527.88
2022-10-23T16:56:09.970Z,100524.38
2022-10-23T16:58:37.168Z,100521.56
2022-10-23T17:01:07.119Z,100512.69
2022-10-23T17:03:34.981Z,100503.81
2022-10-23T17:06:05.036Z,100516.66
2022-10-23T17:08:34.144Z,100513.97
2022-10-23T17:11:21.066Z,100513.81
2022-10-23T17:13:59.917Z,100526.50
2022-10-23T17:16:37.263Z,100531.16
2022-10-23T17:19:15.850Z,100531.44
2022-10-23T17:21:47.956Z,100523.84
2022-10-23T17:24:14.518Z,100523.44
2022-10-23T17:26:41.376Z,100542.44
2022-10-23T17:29:10.046Z,100538.63
2022-10-23T17:31:39.536Z,100533.28
2022-10-23T17:34:07.783Z,100535.97
2022-10-23T17:36:37.627Z,100536.13
2022-10-23T17:39:05.777Z,100535.41
2022-10-23T17:41:32.245Z,100528.53
2022-10-23T17:43:59.555Z,100527.97
2022-10-23T17:46:29.216Z,100530.50
2022-10-23T17:49:00.291Z,100536.00
2022-10-23T17:51:28.964Z,100534.72
2022-10-23T17:53:57.289Z,100532.06
2022-10-23T17:56:25.955Z,100517.31
2022-10-23T17:58:54.217Z,100528.25
2022-10-23T18:01:26.683Z,100527.28
2022-10-23T18:03:55.299Z,100519.53
2022-10-23T18:06:27.370Z,100505.78
2022-10-23T18:08:56.688Z,100519.25
2022-10-23T18:11:26.025Z,100519.13
2022-10-23T18:13:53.814Z,100527.13
2022-10-23T18:16:21.970Z,100519.97
2022-10-23T18:18:49.295Z,100508.13
2022-10-23T18:21:16.865Z,100513.19
2022-10-23T18:23:43.954Z,100514.59
2022-10-23T18:26:17.708Z,100511.47
2022-10-23T18:28:49.516Z,100511.03
2022-10-23T18:31:17.365Z,100497.38
2022-10-23T18:33:44.659Z,100495.69
2022-10-23T18:36:23.475Z,100488.50
2022-10-23T18:38:50.491Z,100486.38
2022-10-23T18:41:18.659Z,100486.09
2022-10-23T18:43:45.787Z,100490.31
2022-10-23T18:46:13.187Z,100492.84
2022-10-23T18:48:40.462Z,100502.69
2022-10-23T18:51:25.748Z,100494.06
2022-10-23T18:53:52.967Z,100493.22
2022-10-23T18:56:26.088Z,100475.09
2022-10-23T18:58:55.157Z,100468.47
2022-10-23T19:01:23.307Z,100471.69
2022-10-23T19:03:50.605Z,100473.25
2022-10-23T19:06:17.709Z,100453.81
2022-10-23T19:08:45.562Z,100460.84
2022-10-23T19:11:14.026Z,100483.75
2022-10-23T19:13:41.428Z,100495.16
2022-10-23T19:16:16.861Z,100496.94
2022-10-23T19:18:47.795Z,100518.75
2022-10-23T19:21:15.110Z,100521.56
2022-10-23T19:23:42.867Z,100530.19
2022-10-23T19:26:11.978Z,100531.31
2022-10-23T19:28:42.353Z,100532.66
2022-10-23T19:31:10.496Z,100566.97
2022-10-23T19:33:39.190Z,100605.69
2022-10-23T19:36:11.146Z,100635.28
2022-10-23T19:38:41.378Z,100607.84
2022-10-23T19:41:08.182Z,100589.00
2022-10-23T19:43:34.774Z,100583.97
2022-10-23T19:46:04.968Z,100609.28
2022-10-23T19:48:34.392Z,100602.13
2022-10-23T19:51:04.011Z,100604.78
2022-10-23T19:53:30.701Z,100599.25
2022-10-23T19:56:06.448Z,100578.84
2022-10-23T19:58:33.352Z,100569.00
2022-10-23T20:01:07.658Z,100566.47
2022-10-23T20:03:34.265Z,100558.19
2022-10-23T20:06:01.262Z,100553.97
2022-10-23T20:08:31.314Z,100539.50
2022-10-23T20:11:00.842Z,100543.41
2022-10-23T20:13:27.435Z,100536.25
2022-10-23T20:15:56.908Z,100553.38
2022-10-23T20:18:23.577Z,100562.88
2022-10-23T20:20:54.015Z,100567.38
2022-10-23T20:23:20.583Z,100558.09
2022-10-23T20:25:47.273Z,100559.34
2022-10-23T20:28:15.208Z,100554.16
2022-10-23T20:30:42.644Z,100559.06
2022-10-23T20:33:09.184Z,100572.53
2022-10-23T20:35:44.830Z,100567.59
2022-10-23T20:38:11.584Z,100556.34
2022-10-23T20:40:41.546Z,100558.16
2022-10-23T20:43:08.023Z,100565.72
2022-10-23T20:45:36.133Z,100573.84
2022-10-23T20:48:02.574Z,100574.69
2022-10-23T20:50:29.082Z,100574.41
2022-10-23T20:52:55.680Z,100573.91
2022-10-23T20:55:22.308Z,100569.69
2022-10-23T20:57:48.973Z,100568.09
2022-10-23T21:00:15.618Z,100578.03
2022-10-23T21:02:43.840Z,100580.84
2022-10-23T21:05:12.204Z,100579.72
2022-10-23T21:07:38.945Z,100584.78
2022-10-23T21:10:05.862Z,100588.63
2022-10-23T21:12:32.303Z,100584.53
2022-10-23T21:14:59.001Z,100586.09
2022-10-23T21:17:25.536Z,100571.75
2022-10-23T21:19:52.198Z,100571.31
2022-10-23T21:22:18.663Z,100577.53
2022-10-23T21:24:45.187Z,100563.34
2022-10-23T21:27:11.630Z,100563.34
2022-10-23T21:29:38.057Z,100561.41
2022-10-23T21:32:04.748Z,100560.00
2022-10-23T21:34:31.260Z,100553.69
2022-10-23T21:37:12.399Z,100556.63
2022-10-23T21:39:40.686Z,100556.63
2022-10-23T21:42:07.205Z,100560.00
2022-10-23T21:44:33.777Z,100563.53
2022-10-23T21:47:00.431Z,100567.59
2022-10-23T21:49:26.925Z,100578.13
2022-10-23T21:51:54.921Z,100572.06
2022-10-23T21:54:21.807Z,100560.69
2022-10-23T21:56:50.966Z,100555.63
2022-10-23T21:59:21.323Z,100558.69
2022-10-23T22:01:49.236Z,100565.28
2022-10-23T22:04:17.286Z,100567.69
2022-10-23T22:06:44.804Z,100567.81
2022-10-23T22:09:14.184Z,100572.16
2022-10-23T22:11:41.527Z,100571.19
2022-10-23T22:14:08.110Z,100572.44
2022-10-23T22:16:34.872Z,100583.25
2022-10-23T22:19:01.762Z,100577.69
2022-10-23T22:21:30.043Z,100570.09
2022-10-23T22:23:58.799Z,100573.53
2022-10-23T22:26:25.353Z,100573.66
2022-10-23T22:28:53.888Z,100564.09
2022-10-23T22:31:25.339Z,100558.66
2022-10-23T22:33:53.082Z,100552.47
2022-10-23T22:36:20.490Z,100552.47
2022-10-23T22:38:47.937Z,100555.13
2022-10-23T22:41:15.150Z,100551.75
2022-10-23T22:43:42.631Z,100569.75
2022-10-23T22:46:20.287Z,100564.28
2022-10-23T22:48:46.849Z,100557.03
2022-10-23T22:51:15.381Z,100557.63
2022-10-23T22:53:42.743Z,100555.94
2022-10-23T22:56:12.494Z,100561.03
2022-10-23T22:58:39.177Z,100558.38
2022-10-23T23:01:21.038Z,100566.97
2022-10-23T23:03:48.922Z,100566.13
2022-10-23T23:06:16.347Z,100563.91
2022-10-23T23:08:43.339Z,100559.03
2022-10-23T23:11:12.833Z,100564.06
2022-10-23T23:13:40.729Z,100555.59
2022-10-23T23:16:08.014Z,100553.63
2022-10-23T23:18:34.999Z,100550.66
2022-10-23T23:21:06.141Z,100542.81
2022-10-23T23:23:32.660Z,100544.66
2022-10-23T23:25:59.127Z,100538.59
2022-10-23T23:28:25.725Z,100538.88
2022-10-23T23:31:05.846Z,100529.31
2022-10-23T23:33:32.405Z,100526.00
2022-10-23T23:35:59.353Z,100525.41
2022-10-23T23:38:26.053Z,100533.09
2022-10-23T23:40:53.734Z,100526.47
2022-10-23T23:43:21.181Z,100538.38
2022-10-23T23:45:47.590Z,100523.63
2022-10-23T23:48:14.204Z,100516.88
2022-10-23T23:50:41.184Z,100523.78
2022-10-23T23:53:07.745Z,100531.50
2022-10-23T23:55:34.783Z,100516.47
2022-10-23T23:58:01.406Z,100517.47
